createdAt,value
2022-12-09T00:00:38.234Z,13.87
2022-12-09T00:01:39.699Z,13.80
2022-12-09T00:02:41.667Z,13.83
2022-12-09T00:03:43.426Z,14.20
2022-12-09T00:04:45.753Z,13.90
2022-12-09T00:05:48.004Z,13.07
2022-12-09T00:06:50.112Z,13.83
2022-12-09T00:07:51.734Z,13.77
2022-12-09T00:08:54.052Z,14.07
2022-12-09T00:09:55.747Z,13.90
2022-12-09T00:10:57.155Z,13.33
2022-12-09T00:11:58.593Z,13.60
2022-12-09T00:13:00.202Z,13.50
2022-12-09T00:14:01.726Z,13.07
2022-12-09T00:15:03.636Z,13.40
2022-12-09T00:16:10.169Z,14.57
2022-12-09T00:17:12.065Z,13.37
2022-12-09T00:18:13.898Z,12.93
2022-12-09T00:19:15.394Z,14.17
2022-12-09T00:20:17.496Z,12.47
2022-12-09T00:21:21.040Z,13.60
2022-12-09T00:22:22.908Z,13.57
2022-12-09T00:23:24.453Z,13.83
2022-12-09T00:24:26.197Z,13.50
2022-12-09T00:25:27.818Z,14.30
2022-12-09T00:26:29.950Z,14.20
2022-12-09T00:27:31.608Z,13.63
2022-12-09T00:28:33.418Z,14.00
2022-12-09T00:29:35.573Z,13.27
2022-12-09T00:30:37.129Z,12.60
2022-12-09T00:31:38.741Z,13.20
2022-12-09T00:32:40.904Z,12.97
2022-12-09T00:33:43.838Z,13.30
2022-12-09T00:34:45.625Z,13.70
2022-12-09T00:35:47.396Z,12.67
2022-12-09T00:36:48.922Z,13.33
2022-12-09T00:37:50.592Z,12.40
2022-12-09T00:38:53.364Z,12.87
2022-12-09T00:39:55.433Z,13.67
2022-12-09T00:40:57.300Z,13.40
2022-12-09T00:41:59.107Z,13.63
2022-12-09T00:43:01.212Z,13.83
2022-12-09T00:44:07.434Z,14.33
2022-12-09T00:45:10.005Z,13.47
2022-12-09T00:46:12.864Z,13.10
2022-12-09T00:47:15.058Z,14.27
2022-12-09T00:48:17.023Z,13.47
2022-12-09T00:49:19.553Z,13.73
2022-12-09T00:50:22.147Z,14.23
2022-12-09T00:51:25.794Z,14.03
2022-12-09T00:52:29.004Z,14.13
2022-12-09T00:53:32.414Z,14.40
2022-12-09T00:54:34.010Z,13.83
2022-12-09T00:55:35.569Z,13.33
2022-12-09T00:56:37.456Z,13.60
2022-12-09T00:57:40.517Z,14.40
2022-12-09T00:58:42.371Z,13.73
2022-12-09T00:59:44.033Z,12.70
2022-12-09T01:00:45.755Z,13.30
2022-12-09T01:01:47.377Z,13.50
2022-12-09T01:02:52.880Z,13.40
2022-12-09T01:03:55.273Z,14.23
2022-12-09T01:04:57.419Z,13.73
2022-12-09T01:05:59.543Z,13.10
2022-12-09T01:07:01.175Z,13.90
2022-12-09T01:08:02.765Z,13.83
2022-12-09T01:09:04.627Z,13.87
2022-12-09T01:10:07.831Z,13.73
2022-12-09T01:11:18.736Z,13.30
2022-12-09T01:12:20.629Z,13.70
2022-12-09T01:13:22.171Z,13.77
2022-12-09T01:14:24.070Z,14.47
2022-12-09T01:15:25.803Z,13.80
2022-12-09T01:16:28.473Z,13.57
2022-12-09T01:17:30.302Z,13.83
2022-12-09T01:18:32.071Z,14.03
2022-12-09T01:19:34.373Z,13.63
2022-12-09T01:20:35.948Z,13.73
2022-12-09T01:21:37.461Z,13.80
2022-12-09T01:22:40.811Z,13.43
2022-12-09T01:23:43.182Z,13.47
2022-12-09T01:24:45.048Z,14.77
2022-12-09T01:25:49.806Z,14.50
2022-12-09T01:26:51.418Z,13.80
2022-12-09T01:27:53.842Z,13.70
2022-12-09T01:28:57.655Z,14.23
2022-12-09T01:29:59.403Z,14.37
2022-12-09T01:31:07.069Z,15.40
2022-12-09T01:32:08.966Z,14.83
2022-12-09T01:33:10.738Z,14.73
2022-12-09T01:34:12.225Z,15.83
2022-12-09T01:35:13.929Z,13.83
2022-12-09T01:36:17.434Z,14.90
2022-12-09T01:37:18.925Z,14.93
2022-12-09T01:38:20.395Z,14.10
2022-12-09T01:39:21.852Z,15.00
2022-12-09T01:40:23.764Z,14.77
2022-12-09T01:41:25.628Z,14.80
2022-12-09T01:42:27.858Z,14.93
2022-12-09T01:43:29.391Z,15.00
2022-12-09T01:44:34.054Z,14.50
2022-12-09T01:45:40.765Z,14.63
2022-12-09T01:46:42.886Z,14.10
2022-12-09T01:47:44.782Z,15.23
2022-12-09T01:48:47.270Z,14.57
2022-12-09T01:49:49.420Z,14.47
2022-12-09T01:50:53.975Z,13.93
2022-12-09T01:52:01.053Z,13.77
2022-12-09T01:53:02.788Z,13.80
2022-12-09T01:54:05.020Z,14.13
2022-12-09T01:55:07.572Z,14.87
2022-12-09T01:56:12.269Z,15.77
2022-12-09T01:57:14.606Z,15.00
2022-12-09T01:58:17.399Z,14.60
2022-12-09T01:59:19.312Z,13.90
2022-12-09T02:00:21.091Z,14.33
2022-12-09T02:01:25.310Z,13.60
2022-12-09T02:02:34.856Z,13.77
2022-12-09T02:03:39.871Z,13.83
2022-12-09T02:04:42.677Z,13.23
2022-12-09T02:05:45.441Z,12.90
2022-12-09T02:06:47.409Z,13.07
2022-12-09T02:07:57.262Z,12.80
2022-12-09T02:08:59.620Z,12.70
2022-12-09T02:10:06.259Z,12.10
2022-12-09T02:11:16.610Z,13.17
2022-12-09T02:12:26.328Z,13.10
2022-12-09T02:13:31.888Z,14.00
2022-12-09T02:15:14.655Z,12.83
2022-12-09T02:16:19.338Z,13.33
2022-12-09T02:17:30.229Z,13.07
2022-12-09T02:18:36.781Z,12.90
2022-12-09T02:19:41.237Z,13.47
2022-12-09T02:20:48.964Z,13.33
2022-12-09T02:22:00.049Z,14.80
2022-12-09T02:23:05.055Z,14.27
2022-12-09T02:24:06.994Z,14.57
2022-12-09T02:25:11.558Z,14.90
2022-12-09T02:26:19.733Z,15.30
2022-12-09T02:27:32.998Z,14.73
2022-12-09T02:28:44.628Z,15.90
2022-12-09T02:29:55.849Z,14.87
2022-12-09T02:31:09.841Z,15.53
2022-12-09T02:32:17.960Z,15.43
2022-12-09T02:33:38.575Z,15.67
2022-12-09T02:34:44.273Z,15.33
2022-12-09T02:35:52.683Z,15.10
2022-12-09T02:37:13.930Z,16.10
2022-12-09T02:38:21.635Z,16.00
2022-12-09T02:39:29.988Z,16.07
2022-12-09T02:40:36.654Z,16.20
2022-12-09T02:41:43.053Z,15.77
2022-12-09T02:42:47.049Z,15.90
2022-12-09T02:43:50.852Z,16.10
2022-12-09T02:44:58.439Z,16.30
2022-12-09T02:46:00.490Z,16.67
2022-12-09T02:47:03.911Z,16.40
2022-12-09T02:48:07.048Z,16.53
2022-12-09T02:49:09.665Z,15.47
2022-12-09T02:50:13.460Z,15.60
2022-12-09T02:51:18.160Z,15.43
2022-12-09T02:52:19.984Z,14.40
2022-12-09T02:53:21.602Z,14.80
2022-12-09T02:54:24.555Z,15.70
2022-12-09T02:55:27.668Z,13.60
2022-12-09T02:56:29.561Z,14.10
2022-12-09T02:57:31.909Z,14.53
2022-12-09T02:58:33.499Z,13.73
2022-12-09T02:59:35.651Z,14.00
2022-12-09T03:00:37.728Z,14.00
2022-12-09T03:01:50.066Z,14.60
2022-12-09T03:02:53.893Z,14.00
2022-12-09T03:03:55.872Z,14.47
2022-12-09T03:04:57.330Z,14.23
2022-12-09T03:06:06.750Z,14.67
2022-12-09T03:07:13.895Z,13.80
2022-12-09T03:08:29.039Z,13.83
2022-12-09T03:09:33.991Z,13.43
2022-12-09T03:10:39.348Z,13.70
2022-12-09T03:11:41.426Z,13.97
2022-12-09T03:12:45.229Z,13.60
2022-12-09T03:13:49.852Z,14.07
2022-12-09T03:14:52.796Z,13.97
2022-12-09T03:15:58.292Z,13.93
2022-12-09T03:16:59.732Z,14.03
2022-12-09T03:18:04.122Z,14.07
2022-12-09T03:19:15.254Z,14.83
2022-12-09T03:20:21.196Z,13.50
2022-12-09T03:21:23.878Z,13.63
2022-12-09T03:22:27.979Z,13.90
2022-12-09T03:23:30.505Z,13.93
2022-12-09T03:24:38.215Z,14.13
2022-12-09T03:25:42.571Z,13.40
2022-12-09T03:26:44.404Z,13.03
2022-12-09T03:28:05.656Z,13.50
2022-12-09T03:29:11.026Z,13.87
2022-12-09T03:30:13.842Z,14.13
2022-12-09T03:31:18.553Z,14.33
2022-12-09T03:32:23.826Z,13.67
2022-12-09T03:33:26.552Z,13.63
2022-12-09T03:34:32.335Z,14.00
2022-12-09T03:35:39.621Z,13.40
2022-12-09T03:36:42.227Z,13.73
2022-12-09T03:37:44.358Z,12.70
2022-12-09T03:38:47.538Z,13.23
2022-12-09T03:39:49.556Z,14.13
2022-12-09T03:40:53.943Z,14.03
2022-12-09T03:41:56.798Z,13.97
2022-12-09T03:43:10.941Z,13.73
2022-12-09T03:44:22.170Z,13.97
2022-12-09T03:45:24.845Z,14.03
2022-12-09T03:46:28.346Z,13.33
2022-12-09T03:47:30.230Z,14.33
2022-12-09T03:48:32.455Z,13.47
2022-12-09T03:49:33.951Z,13.57
2022-12-09T03:50:58.918Z,13.40
2022-12-09T03:52:21.976Z,13.80
2022-12-09T03:53:32.851Z,13.03
2022-12-09T03:54:42.160Z,13.00
2022-12-09T03:56:06.295Z,12.77
2022-12-09T03:57:13.650Z,13.37
2022-12-09T03:58:18.573Z,14.03
2022-12-09T03:59:20.817Z,14.03
2022-12-09T04:00:22.260Z,15.10
2022-12-09T04:01:24.482Z,14.53
2022-12-09T04:02:26.559Z,13.80
2022-12-09T04:03:28.552Z,13.90
2022-12-09T04:04:30.504Z,13.70
2022-12-09T04:05:32.076Z,13.87
2022-12-09T04:06:33.895Z,13.60
2022-12-09T04:07:35.357Z,13.53
2022-12-09T04:08:37.114Z,12.83
2022-12-09T04:09:38.701Z,13.27
2022-12-09T04:10:40.406Z,12.93
2022-12-09T04:11:42.240Z,14.50
2022-12-09T04:12:43.908Z,13.23
2022-12-09T04:13:46.142Z,13.03
2022-12-09T04:14:47.776Z,13.30
2022-12-09T04:15:49.148Z,13.00
2022-12-09T04:16:50.836Z,13.90
2022-12-09T04:17:52.346Z,12.77
2022-12-09T04:18:54.081Z,13.07
2022-12-09T04:19:55.844Z,12.77
2022-12-09T04:20:57.645Z,12.90
2022-12-09T04:21:59.535Z,12.87
2022-12-09T04:23:01.263Z,13.40
2022-12-09T04:24:02.677Z,13.43
2022-12-09T04:25:04.501Z,13.57
2022-12-09T04:26:06.032Z,13.37
2022-12-09T04:27:07.799Z,14.03
2022-12-09T04:28:09.523Z,13.23
2022-12-09T04:29:11.504Z,12.53
2022-12-09T04:30:13.561Z,12.70
2022-12-09T04:31:16.529Z,12.60
2022-12-09T04:32:18.424Z,13.67
2022-12-09T04:33:19.881Z,12.77
2022-12-09T04:34:21.394Z,13.37
2022-12-09T04:35:23.130Z,13.40
2022-12-09T04:36:24.499Z,12.97
2022-12-09T04:37:26.780Z,13.63
2022-12-09T04:38:28.235Z,13.30
2022-12-09T04:39:30.231Z,12.53
2022-12-09T04:40:31.876Z,13.00
2022-12-09T04:41:33.600Z,13.53
2022-12-09T04:42:35.989Z,12.77
2022-12-09T04:43:38.564Z,13.63
2022-12-09T04:44:39.976Z,14.20
2022-12-09T04:45:42.412Z,13.10
2022-12-09T04:46:44.329Z,13.13
2022-12-09T04:47:47.646Z,14.27
2022-12-09T04:48:49.951Z,13.80
2022-12-09T04:49:52.501Z,13.10
2022-12-09T04:50:54.881Z,13.53
2022-12-09T04:51:56.468Z,12.90
2022-12-09T04:53:06.511Z,13.40
2022-12-09T04:54:13.021Z,12.77
2022-12-09T04:55:16.137Z,13.27
2022-12-09T04:56:23.667Z,13.27
2022-12-09T04:57:25.588Z,12.97
2022-12-09T04:58:26.992Z,13.03
2022-12-09T04:59:33.221Z,13.70
2022-12-09T05:00:34.982Z,13.73
2022-12-09T05:01:38.479Z,13.37
2022-12-09T05:02:43.027Z,13.17
2022-12-09T05:03:47.843Z,13.40
2022-12-09T05:04:50.081Z,12.83
2022-12-09T05:05:51.978Z,12.47
2022-12-09T05:06:54.244Z,12.53
2022-12-09T05:07:56.012Z,12.20
2022-12-09T05:08:57.933Z,13.27
2022-12-09T05:09:59.725Z,14.40
2022-12-09T05:11:01.669Z,12.93
2022-12-09T05:12:03.528Z,13.67
2022-12-09T05:13:05.442Z,12.93
2022-12-09T05:14:07.189Z,13.57
2022-12-09T05:15:09.104Z,13.47
2022-12-09T05:16:15.893Z,13.23
2022-12-09T05:17:18.349Z,12.23
2022-12-09T05:18:20.492Z,12.87
2022-12-09T05:19:22.116Z,13.03
2022-12-09T05:20:28.074Z,12.63
2022-12-09T05:21:30.100Z,13.03
2022-12-09T05:22:33.065Z,13.53
2022-12-09T05:23:35.664Z,13.90
2022-12-09T05:24:37.197Z,12.97
2022-12-09T05:25:38.964Z,13.43
2022-12-09T05:26:41.133Z,14.20
2022-12-09T05:27:42.899Z,12.77
2022-12-09T05:28:45.051Z,13.77
2022-12-09T05:29:46.969Z,13.40
2022-12-09T05:30:49.086Z,13.07
2022-12-09T05:31:51.785Z,13.63
2022-12-09T05:32:53.806Z,13.97
2022-12-09T05:33:55.593Z,13.20
2022-12-09T05:34:57.965Z,12.47
2022-12-09T05:36:00.103Z,12.93
2022-12-09T05:37:01.781Z,13.30
2022-12-09T05:38:03.912Z,14.43
2022-12-09T05:39:05.550Z,13.07
2022-12-09T05:40:08.941Z,13.63
2022-12-09T05:41:11.125Z,14.03
2022-12-09T05:42:12.748Z,12.43
2022-12-09T05:43:14.997Z,13.90
2022-12-09T05:44:17.070Z,13.13
2022-12-09T05:45:19.135Z,14.20
2022-12-09T05:46:21.036Z,13.40
2022-12-09T05:47:22.958Z,13.87
2022-12-09T05:48:25.145Z,13.47
2022-12-09T05:49:27.133Z,14.53
2022-12-09T05:50:30.406Z,13.87
2022-12-09T05:51:32.434Z,13.70
2022-12-09T05:52:37.789Z,13.87
2022-12-09T05:53:39.235Z,13.97
2022-12-09T05:54:40.991Z,13.67
2022-12-09T05:55:42.895Z,13.67
2022-12-09T05:56:48.060Z,13.87
2022-12-09T05:57:50.442Z,13.67
2022-12-09T05:58:52.291Z,13.73
2022-12-09T05:59:53.728Z,13.90
2022-12-09T06:00:57.276Z,14.07
2022-12-09T06:02:00.016Z,13.80
2022-12-09T06:03:02.962Z,13.93
2022-12-09T06:04:05.078Z,14.30
2022-12-09T06:05:07.846Z,13.37
2022-12-09T06:06:10.859Z,13.17
2022-12-09T06:07:13.234Z,14.10
2022-12-09T06:08:14.842Z,13.40
2022-12-09T06:09:16.771Z,12.93
2022-12-09T06:10:18.912Z,14.03
2022-12-09T06:11:21.365Z,13.30
2022-12-09T06:12:23.448Z,13.80
2022-12-09T06:13:25.291Z,13.23
2022-12-09T06:14:26.897Z,13.77
2022-12-09T06:15:33.246Z,13.73
2022-12-09T06:16:35.748Z,12.80
2022-12-09T06:17:38.097Z,13.43
2022-12-09T06:18:42.013Z,13.60
2022-12-09T06:19:49.823Z,13.07
2022-12-09T06:20:51.414Z,13.77
2022-12-09T06:21:52.758Z,13.07
2022-12-09T06:22:54.226Z,13.60
2022-12-09T06:23:56.153Z,12.20
2022-12-09T06:24:57.609Z,12.20
2022-12-09T06:25:59.513Z,13.27
2022-12-09T06:27:01.523Z,13.20
2022-12-09T06:28:04.028Z,12.53
2022-12-09T06:29:05.974Z,12.90
2022-12-09T06:30:07.785Z,12.10
2022-12-09T06:31:09.560Z,12.90
2022-12-09T06:32:11.594Z,12.83
2022-12-09T06:33:45.119Z,12.70
2022-12-09T06:34:34.881Z,12.33
2022-12-09T06:35:36.608Z,11.87
2022-12-09T06:36:38.656Z,12.80
2022-12-09T06:37:40.376Z,13.13
2022-12-09T06:38:42.060Z,13.63
2022-12-09T06:39:43.749Z,12.57
2022-12-09T06:40:45.370Z,14.17
2022-12-09T06:41:46.800Z,12.73
2022-12-09T06:42:51.269Z,13.90
2022-12-09T06:43:52.756Z,13.00
2022-12-09T06:44:54.532Z,13.27
2022-12-09T06:45:55.929Z,12.77
2022-12-09T06:46:57.652Z,12.23
2022-12-09T06:47:59.535Z,13.17
2022-12-09T06:49:01.035Z,12.33
2022-12-09T06:50:07.081Z,12.97
2022-12-09T06:51:09.672Z,12.20
2022-12-09T06:52:11.245Z,12.93
2022-12-09T06:53:13.107Z,12.27
2022-12-09T06:54:14.735Z,12.10
2022-12-09T06:55:16.242Z,12.07
2022-12-09T06:56:18.319Z,12.80
2022-12-09T06:57:20.111Z,12.33
2022-12-09T06:58:21.564Z,12.43
2022-12-09T06:59:23.078Z,13.33
2022-12-09T07:00:33.522Z,12.53
2022-12-09T07:01:35.932Z,12.67
2022-12-09T07:02:37.788Z,12.83
2022-12-09T07:03:42.243Z,12.33
2022-12-09T07:04:44.454Z,13.07
2022-12-09T07:05:46.210Z,12.63
2022-12-09T07:06:48.069Z,13.17
2022-12-09T07:07:50.647Z,13.97
2022-12-09T07:08:52.701Z,13.20
2022-12-09T07:09:54.193Z,13.87
2022-12-09T07:10:57.067Z,13.00
2022-12-09T07:11:58.747Z,13.00
2022-12-09T07:13:00.531Z,12.50
2022-12-09T07:14:02.305Z,12.77
2022-12-09T07:15:04.254Z,13.47
2022-12-09T07:16:06.234Z,12.87
2022-12-09T07:17:08.447Z,12.73
2022-12-09T07:18:10.228Z,12.70
2022-12-09T07:19:16.919Z,13.13
2022-12-09T07:20:18.908Z,12.90
2022-12-09T07:21:21.607Z,12.13
2022-12-09T07:22:23.848Z,12.27
2022-12-09T07:23:25.545Z,12.27
2022-12-09T07:24:32.153Z,12.50
2022-12-09T07:25:42.772Z,12.63
2022-12-09T07:26:52.748Z,12.47
2022-12-09T07:27:57.035Z,12.80
2022-12-09T07:29:01.279Z,12.53
2022-12-09T07:30:06.299Z,11.87
2022-12-09T07:31:17.126Z,12.50
2022-12-09T07:32:18.671Z,11.63
2022-12-09T07:33:20.362Z,12.40
2022-12-09T07:34:21.981Z,12.30
2022-12-09T07:35:23.633Z,12.43
2022-12-09T07:36:26.643Z,12.73
2022-12-09T07:37:28.340Z,13.63
2022-12-09T07:38:29.793Z,13.10
2022-12-09T07:39:31.670Z,12.47
2022-12-09T07:40:33.426Z,13.03
2022-12-09T07:41:35.271Z,13.40
2022-12-09T07:42:37.230Z,13.60
2022-12-09T07:43:39.814Z,12.27
2022-12-09T07:44:41.277Z,12.97
2022-12-09T07:45:43.010Z,12.10
2022-12-09T07:46:44.869Z,12.90
2022-12-09T07:47:46.824Z,13.20
2022-12-09T07:48:49.394Z,14.93
2022-12-09T07:49:51.432Z,16.60
2022-12-09T07:50:53.243Z,17.57
2022-12-09T07:51:56.702Z,20.63
2022-12-09T07:52:59.033Z,20.97
2022-12-09T07:54:00.470Z,21.53
2022-12-09T07:55:02.331Z,20.03
2022-12-09T07:56:05.265Z,17.50
2022-12-09T07:57:06.812Z,15.27
2022-12-09T07:58:08.406Z,14.90
2022-12-09T07:59:10.501Z,14.73
2022-12-09T08:00:13.582Z,15.17
2022-12-09T08:01:17.980Z,14.67
2022-12-09T08:02:19.587Z,15.93
2022-12-09T08:03:21.492Z,15.53
2022-12-09T08:04:23.158Z,16.50
2022-12-09T08:05:25.697Z,16.73
2022-12-09T08:06:28.509Z,16.73
2022-12-09T08:07:30.436Z,16.23
2022-12-09T08:08:32.997Z,16.30
2022-12-09T08:09:34.933Z,15.70
2022-12-09T08:10:36.989Z,16.43
2022-12-09T08:11:38.656Z,14.00
2022-12-09T08:12:40.189Z,13.63
2022-12-09T08:13:42.419Z,14.53
2022-12-09T08:14:43.961Z,13.67
2022-12-09T08:15:45.799Z,14.53
2022-12-09T08:16:47.713Z,13.13
2022-12-09T08:17:49.535Z,14.27
2022-12-09T08:18:51.616Z,14.30
2022-12-09T08:19:53.912Z,13.33
2022-12-09T08:20:55.496Z,14.03
2022-12-09T08:21:56.950Z,14.60
2022-12-09T08:22:58.550Z,12.80
2022-12-09T08:24:01.556Z,13.47
2022-12-09T08:25:03.019Z,12.90
2022-12-09T08:26:06.121Z,12.87
2022-12-09T08:27:07.632Z,12.80
2022-12-09T08:28:09.537Z,13.17
2022-12-09T08:29:13.024Z,13.27
2022-12-09T08:30:15.333Z,13.23
2022-12-09T08:31:18.852Z,13.30
2022-12-09T08:32:20.985Z,15.00
2022-12-09T08:33:22.985Z,13.93
2022-12-09T08:34:24.754Z,14.00
2022-12-09T08:35:27.527Z,15.03
2022-12-09T08:36:29.278Z,13.93
2022-12-09T08:37:31.043Z,13.30
2022-12-09T08:38:32.713Z,14.43
2022-12-09T08:39:34.400Z,14.30
2022-12-09T08:40:36.181Z,13.50
2022-12-09T08:41:38.892Z,14.17
2022-12-09T08:42:40.669Z,15.23
2022-12-09T08:43:42.929Z,15.10
2022-12-09T08:44:47.732Z,13.63
2022-12-09T08:45:49.401Z,13.97
2022-12-09T08:46:52.006Z,13.67
2022-12-09T08:47:54.146Z,14.00
2022-12-09T08:48:58.455Z,13.57
2022-12-09T08:50:03.077Z,13.20
2022-12-09T08:51:05.892Z,13.40
2022-12-09T08:52:07.455Z,12.77
2022-12-09T08:53:14.750Z,13.87
2022-12-09T08:54:16.610Z,13.80
2022-12-09T08:55:20.968Z,13.93
2022-12-09T08:56:25.122Z,14.00
2022-12-09T08:57:38.465Z,13.87
2022-12-09T08:58:41.072Z,14.63
2022-12-09T08:59:45.419Z,14.20
2022-12-09T09:00:47.567Z,14.10
2022-12-09T09:01:49.481Z,12.60
2022-12-09T09:02:51.100Z,12.77
2022-12-09T09:03:53.112Z,13.10
2022-12-09T09:04:54.875Z,12.53
2022-12-09T09:06:10.415Z,12.40
2022-12-09T09:07:13.205Z,14.10
2022-12-09T09:08:15.140Z,13.20
2022-12-09T09:09:17.019Z,13.73
2022-12-09T09:10:19.433Z,14.37
2022-12-09T09:11:21.536Z,14.33
2022-12-09T09:12:23.392Z,14.53
2022-12-09T09:13:25.101Z,14.40
2022-12-09T09:14:26.476Z,15.33
2022-12-09T09:15:28.265Z,14.83
2022-12-09T09:16:29.949Z,14.07
2022-12-09T09:17:31.677Z,14.40
2022-12-09T09:18:33.433Z,15.00
2022-12-09T09:19:35.132Z,13.90
2022-12-09T09:20:37.141Z,14.03
2022-12-09T09:21:38.593Z,13.73
2022-12-09T09:22:40.355Z,13.33
2022-12-09T09:23:42.224Z,14.57
2022-12-09T09:24:43.647Z,14.23
2022-12-09T09:25:45.541Z,14.07
2022-12-09T09:26:47.677Z,14.50
2022-12-09T09:27:49.131Z,13.77
2022-12-09T09:28:50.938Z,14.87
2022-12-09T09:29:52.998Z,13.83
2022-12-09T09:31:01.741Z,14.03
2022-12-09T09:32:03.833Z,13.87
2022-12-09T09:33:05.861Z,13.43
2022-12-09T09:34:07.720Z,13.93
2022-12-09T09:35:09.646Z,13.60
2022-12-09T09:36:13.517Z,14.20
2022-12-09T09:37:15.224Z,14.23
2022-12-09T09:38:16.913Z,14.33
2022-12-09T09:39:18.657Z,14.13
2022-12-09T09:40:20.421Z,14.07
2022-12-09T09:41:22.488Z,14.87
2022-12-09T09:42:27.808Z,13.83
2022-12-09T09:43:33.642Z,14.13
2022-12-09T09:44:36.926Z,14.20
2022-12-09T09:45:38.576Z,13.63
2022-12-09T09:46:42.739Z,14.00
2022-12-09T09:48:02.942Z,15.07
2022-12-09T09:49:07.577Z,14.40
2022-12-09T09:50:09.651Z,14.87
2022-12-09T09:51:14.632Z,14.30
2022-12-09T09:52:20.500Z,13.87
2022-12-09T09:53:26.967Z,15.43
2022-12-09T09:54:29.233Z,14.60
2022-12-09T09:55:36.159Z,15.30
2022-12-09T09:56:55.178Z,15.07
2022-12-09T09:58:05.586Z,14.53
2022-12-09T09:59:07.367Z,15.07
2022-12-09T10:00:22.864Z,14.37
2022-12-09T10:01:26.890Z,15.00
2022-12-09T10:02:43.868Z,14.70
2022-12-09T10:03:58.110Z,14.07
2022-12-09T10:05:13.484Z,14.50
2022-12-09T10:06:34.534Z,14.63
2022-12-09T10:07:43.923Z,14.33
2022-12-09T10:08:56.150Z,14.97
2022-12-09T10:10:18.803Z,15.00
2022-12-09T10:11:25.057Z,14.43
2022-12-09T10:12:46.080Z,13.83
2022-12-09T10:13:57.464Z,15.30
2022-12-09T10:15:09.146Z,14.23
2022-12-09T10:16:15.495Z,14.23
2022-12-09T10:17:29.229Z,14.83
2022-12-09T10:18:51.580Z,14.70
2022-12-09T10:19:55.495Z,14.70
2022-12-09T10:20:57.503Z,15.00
2022-12-09T10:22:00.137Z,14.37
2022-12-09T10:23:06.922Z,15.27
2022-12-09T10:24:18.447Z,15.00
2022-12-09T10:25:24.033Z,13.97
2022-12-09T10:26:27.431Z,15.07
2022-12-09T10:27:37.374Z,15.17
2022-12-09T10:28:42.485Z,14.30
2022-12-09T10:29:47.088Z,14.93
2022-12-09T10:30:49.431Z,15.93
2022-12-09T10:31:50.862Z,15.37
2022-12-09T10:32:54.357Z,15.90
2022-12-09T10:33:55.999Z,15.13
2022-12-09T10:34:58.218Z,16.33
2022-12-09T10:36:00.157Z,14.83
2022-12-09T10:37:01.776Z,14.93
2022-12-09T10:38:10.517Z,13.70
2022-12-09T10:39:15.272Z,14.10
2022-12-09T10:40:31.571Z,14.20
2022-12-09T10:41:54.769Z,14.20
2022-12-09T10:43:16.191Z,12.97
2022-12-09T10:44:19.800Z,13.17
2022-12-09T10:45:21.715Z,14.20
2022-12-09T10:46:24.713Z,13.73
2022-12-09T10:47:29.297Z,14.00
2022-12-09T10:48:34.180Z,14.73
2022-12-09T10:49:36.128Z,14.13
2022-12-09T10:50:38.039Z,13.93
2022-12-09T10:51:47.524Z,14.20
2022-12-09T10:52:49.388Z,13.87
2022-12-09T10:53:58.773Z,13.57
2022-12-09T10:55:00.533Z,15.27
2022-12-09T10:56:03.515Z,15.53
2022-12-09T10:57:13.978Z,15.73
2022-12-09T10:58:15.837Z,16.57
2022-12-09T10:59:24.873Z,16.50
2022-12-09T11:00:32.696Z,16.07
2022-12-09T11:01:53.635Z,16.23
2022-12-09T11:02:55.713Z,17.03
2022-12-09T11:03:57.945Z,17.27
2022-12-09T11:05:18.376Z,16.80
2022-12-09T11:06:31.397Z,19.03
2022-12-09T11:07:33.009Z,17.93
2022-12-09T11:08:34.684Z,15.97
2022-12-09T11:09:38.017Z,16.30
2022-12-09T11:10:48.303Z,16.33
2022-12-09T11:11:50.481Z,15.90
2022-12-09T11:12:53.368Z,15.63
2022-12-09T11:13:55.459Z,15.77
2022-12-09T11:15:02.084Z,17.57
2022-12-09T11:16:05.280Z,18.23
2022-12-09T11:17:27.592Z,16.73
2022-12-09T11:18:32.074Z,14.27
2022-12-09T11:19:35.153Z,14.90
2022-12-09T11:20:37.000Z,14.30
2022-12-09T11:21:39.516Z,14.73
2022-12-09T11:22:42.425Z,13.87
2022-12-09T11:23:57.171Z,14.40
2022-12-09T11:25:13.310Z,14.20
2022-12-09T11:26:25.889Z,13.43
2022-12-09T11:27:27.408Z,13.27
2022-12-09T11:28:30.227Z,13.33
2022-12-09T11:29:31.908Z,13.50
2022-12-09T11:30:57.499Z,14.13
2022-12-09T11:32:02.309Z,14.03
2022-12-09T11:33:13.380Z,13.43
2022-12-09T11:34:26.024Z,14.10
2022-12-09T11:35:37.621Z,13.73
2022-12-09T11:36:46.628Z,13.17
2022-12-09T11:37:47.995Z,13.30
2022-12-09T11:38:51.276Z,13.50
2022-12-09T11:39:52.667Z,12.93
2022-12-09T11:41:36.871Z,12.90
2022-12-09T11:42:42.199Z,11.90
2022-12-09T11:43:53.529Z,13.27
2022-12-09T11:45:03.278Z,12.40
2022-12-09T11:46:13.971Z,12.33
2022-12-09T11:47:25.670Z,12.43
2022-12-09T11:48:36.284Z,12.97
2022-12-09T11:49:49.490Z,12.10
2022-12-09T11:50:51.628Z,12.43
2022-12-09T11:52:00.643Z,12.20
2022-12-09T11:53:11.180Z,11.27
2022-12-09T11:54:24.108Z,10.93
2022-12-09T11:55:34.637Z,11.47
2022-12-09T11:56:36.742Z,11.97
2022-12-09T11:57:48.368Z,12.20
2022-12-09T11:59:05.304Z,13.23
2022-12-09T12:00:16.251Z,11.83
2022-12-09T12:01:17.548Z,10.50
2022-12-09T12:02:27.913Z,12.23
2022-12-09T12:03:47.369Z,12.50
2022-12-09T12:04:51.797Z,13.13
2022-12-09T12:05:54.890Z,12.17
2022-12-09T12:07:03.241Z,11.80
2022-12-09T12:08:07.694Z,12.33
2022-12-09T12:09:17.832Z,12.83
2022-12-09T12:10:23.625Z,12.57
2022-12-09T12:11:33.423Z,12.63
2022-12-09T12:12:34.805Z,12.73
2022-12-09T12:13:46.526Z,12.00
2022-12-09T12:14:50.065Z,12.07
2022-12-09T12:16:04.623Z,12.57
2022-12-09T12:17:24.550Z,12.77
2022-12-09T12:18:30.585Z,13.10
2022-12-09T12:19:34.896Z,12.43
2022-12-09T12:20:44.755Z,12.10
2022-12-09T12:21:53.763Z,11.47
2022-12-09T12:23:14.059Z,11.73
2022-12-09T12:24:33.703Z,12.57
2022-12-09T12:25:53.769Z,11.23
2022-12-09T12:26:58.170Z,11.30
2022-12-09T12:28:11.839Z,11.70
2022-12-09T12:29:28.597Z,11.47
2022-12-09T12:30:55.550Z,10.93
2022-12-09T12:32:15.837Z,11.60
2022-12-09T12:35:03.372Z,11.97
2022-12-09T12:36:12.079Z,10.93
2022-12-09T12:37:16.355Z,11.37
2022-12-09T12:38:23.174Z,11.57
2022-12-09T12:39:43.318Z,11.53
2022-12-09T12:41:06.414Z,11.47
2022-12-09T12:42:32.260Z,10.83
2022-12-09T12:43:52.252Z,11.90
2022-12-09T12:45:24.715Z,11.73
2022-12-09T12:46:27.109Z,11.57
2022-12-09T12:47:34.178Z,11.60
2022-12-09T12:48:46.050Z,11.90
2022-12-09T12:49:53.372Z,11.83
2022-12-09T12:50:54.657Z,11.33
2022-12-09T12:52:47.298Z,11.27
2022-12-09T12:53:53.568Z,12.17
2022-12-09T12:55:14.279Z,11.27
2022-12-09T12:56:16.968Z,11.97
2022-12-09T12:57:31.965Z,11.77
2022-12-09T12:58:39.026Z,12.03
2022-12-09T12:59:51.387Z,11.33
2022-12-09T13:01:03.122Z,11.80
2022-12-09T13:02:16.229Z,11.30
2022-12-09T13:03:25.928Z,11.90
2022-12-09T13:04:33.766Z,12.67
2022-12-09T13:05:36.777Z,12.87
2022-12-09T13:06:44.029Z,13.43
2022-12-09T13:07:55.797Z,12.07
2022-12-09T13:09:26.437Z,12.07
2022-12-09T13:10:45.055Z,12.20
2022-12-09T13:11:55.192Z,12.63
2022-12-09T13:12:58.425Z,12.80
2022-12-09T13:14:16.844Z,13.07
2022-12-09T13:15:19.668Z,13.43
2022-12-09T13:16:26.155Z,13.73
2022-12-09T13:17:28.846Z,14.20
2022-12-09T13:18:35.956Z,14.07
2022-12-09T13:19:43.387Z,14.40
2022-12-09T13:20:49.539Z,14.00
2022-12-09T13:21:54.444Z,15.03
2022-12-09T13:23:22.428Z,14.50
2022-12-09T13:24:34.114Z,14.47
2022-12-09T13:25:54.545Z,14.60
2022-12-09T13:27:05.984Z,15.33
2022-12-09T13:28:18.091Z,14.47
2022-12-09T13:29:57.959Z,14.13
2022-12-09T13:30:59.906Z,14.57
2022-12-09T13:32:19.912Z,14.40
2022-12-09T13:33:33.970Z,15.00
2022-12-09T13:34:42.968Z,14.67
2022-12-09T13:36:06.827Z,15.43
2022-12-09T13:37:27.264Z,13.33
2022-12-09T13:38:34.837Z,14.53
2022-12-09T13:39:38.982Z,14.20
2022-12-09T13:40:40.300Z,14.60
2022-12-09T13:42:03.866Z,15.13
2022-12-09T13:43:17.017Z,15.03
2022-12-09T13:44:21.825Z,14.03
2022-12-09T13:45:34.599Z,13.87
2022-12-09T13:46:36.180Z,13.40
2022-12-09T13:47:37.541Z,14.43
2022-12-09T13:48:45.329Z,14.23
2022-12-09T13:49:57.832Z,14.00
2022-12-09T13:50:59.797Z,14.13
2022-12-09T13:52:01.219Z,14.43
2022-12-09T13:53:19.363Z,14.23
2022-12-09T13:54:28.060Z,15.57
2022-12-09T13:55:37.354Z,15.23
2022-12-09T13:57:04.936Z,14.50
2022-12-09T13:58:23.322Z,13.70
2022-12-09T13:59:42.502Z,15.57
2022-12-09T14:00:44.297Z,15.20
2022-12-09T14:01:45.587Z,15.73